sensor_id;sensor_type;location;lat;lon;timestamp;pressure;altitude;pressure_sealevel;temperature;humidity
57024;BME280;42916;54.346;18.562;2022-09-21T00:01:18;100843.63;;;10.20;100.00
57024;BME280;42916;54.346;18.562;2022-09-21T00:03:46;100842.39;;;10.23;100.00
57024;BME280;42916;54.346;18.562;2022-09-21T00:06:16;100831.48;;;10.28;100.00
57024;BME280;42916;54.346;18.562;2022-09-21T00:08:44;100834.64;;;10.27;100.00
57024;BME280;42916;54.346;18.562;2022-09-21T00:11:13;100837.98;;;10.26;100.00
57024;BME280;42916;54.346;18.562;2022-09-21T00:13:40;100838.94;;;10.24;100.00
57024;BME280;42916;54.346;18.562;2022-09-21T00:16:09;100845.80;;;10.22;100.00
57024;BME280;42916;54.346;18.562;2022-09-21T00:18:36;100848.14;;;10.20;100.00
57024;BME280;42916;54.346;18.562;2022-09-21T00:21:07;100852.27;;;10.19;100.00
57024;BME280;42916;54.346;18.562;2022-09-21T00:23:35;100862.90;;;10.18;100.00
57024;BME280;42916;54.346;18.562;2022-09-21T00:26:07;100859.41;;;10.15;100.00
57024;BME280;42916;54.346;18.562;2022-09-21T00:28:34;100859.85;;;10.12;100.00
57024;BME280;42916;54.346;18.562;2022-09-21T00:31:05;100862.85;;;10.12;100.00
57024;BME280;42916;54.346;18.562;2022-09-21T00:33:33;100863.33;;;10.12;100.00
57024;BME280;42916;54.346;18.562;2022-09-21T00:36:05;100860.70;;;10.11;100.00
57024;BME280;42916;54.346;18.562;2022-09-21T00:38:33;100859.90;;;10.10;100.00
57024;BME280;42916;54.346;18.562;2022-09-21T00:41:00;100857.97;;;10.08;100.00
57024;BME280;42916;54.346;18.562;2022-09-21T00:43:26;100859.34;;;10.06;100.00
57024;BME280;42916;54.346;18.562;2022-09-21T00:46:02;100857.54;;;10.05;100.00
57024;BME280;42916;54.346;18.562;2022-09-21T00:48:29;100853.52;;;10.00;100.00
57024;BME280;42916;54.346;18.562;2022-09-21T00:51:00;100855.99;;;9.94;100.00
57024;BME280;42916;54.346;18.562;2022-09-21T00:53:27;100857.27;;;9.87;100.00
57024;BME280;42916;54.346;18.562;2022-09-21T00:55:56;100857.94;;;9.80;100.00
57024;BME280;42916;54.346;18.562;2022-09-21T00:58:28;100856.48;;;9.73;100.00
57024;BME280;42916;54.346;18.562;2022-09-21T01:00:57;100858.61;;;9.69;100.00
57024;BME280;42916;54.346;18.562;2022-09-21T01:03:25;100855.73;;;9.64;100.00
57024;BME280;42916;54.346;18.562;2022-09-21T01:05:52;100852.91;;;9.59;100.00
57024;BME280;42916;54.346;18.562;2022-09-21T01:08:19;100853.83;;;9.54;100.00
57024;BME280;42916;54.346;18.562;2022-09-21T01:13:41;100854.73;;;9.41;100.00
57024;BME280;42916;54.346;18.562;2022-09-21T01:16:18;100857.57;;;9.37;100.00
57024;BME280;42916;54.346;18.562;2022-09-21T01:27:50;100854.58;;;9.18;100.00
57024;BME280;42916;54.346;18.562;2022-09-21T01:30:20;100852.16;;;9.15;100.00
57024;BME280;42916;54.346;18.562;2022-09-21T01:32:52;100855.83;;;9.11;100.00
57024;BME280;42916;54.346;18.562;2022-09-21T01:35:26;100852.42;;;9.08;100.00
57024;BME280;42916;54.346;18.562;2022-09-21T01:38:03;100852.35;;;9.04;100.00
57024;BME280;42916;54.346;18.562;2022-09-21T01:40:33;100859.71;;;9.03;100.00
57024;BME280;42916;54.346;18.562;2022-09-21T01:43:04;100857.77;;;9.02;100.00
57024;BME280;42916;54.346;18.562;2022-09-21T01:45:36;100857.80;;;9.01;100.00
57024;BME280;42916;54.346;18.562;2022-09-21T01:48:04;100856.27;;;8.99;100.00
57024;BME280;42916;54.346;18.562;2022-09-21T01:50:35;100854.52;;;8.97;100.00
57024;BME280;42916;54.346;18.562;2022-09-21T01:53:15;100856.41;;;8.98;100.00
57024;BME280;42916;54.346;18.562;2022-09-21T01:55:49;100861.48;;;8.98;100.00
57024;BME280;42916;54.346;18.562;2022-09-21T01:58:34;100858.71;;;9.00;100.00
57024;BME280;42916;54.346;18.562;2022-09-21T02:01:03;100864.81;;;9.02;100.00
57024;BME280;42916;54.346;18.562;2022-09-21T02:03:36;100857.02;;;9.02;100.00
57024;BME280;42916;54.346;18.562;2022-09-21T02:06:05;100859.77;;;9.01;100.00
57024;BME280;42916;54.346;18.562;2022-09-21T02:08:32;100863.35;;;9.01;100.00
57024;BME280;42916;54.346;18.562;2022-09-21T02:11:01;100858.73;;;9.01;100.00
57024;BME280;42916;54.346;18.562;2022-09-21T02:13:30;100861.10;;;9.03;100.00
57024;BME280;42916;54.346;18.562;2022-09-21T02:18:47;100868.59;;;9.05;100.00
57024;BME280;42916;54.346;18.562;2022-09-21T02:32:31;100869.77;;;9.16;100.00
57024;BME280;42916;54.346;18.562;2022-09-21T02:43:14;100876.29;;;9.16;100.00
57024;BME280;42916;54.346;18.562;2022-09-21T02:45:58;100882.23;;;9.15;100.00
57024;BME280;42916;54.346;18.562;2022-09-21T02:48:31;100879.52;;;9.15;100.00
57024;BME280;42916;54.346;18.562;2022-09-21T02:51:09;100882.54;;;9.14;100.00
57024;BME280;42916;54.346;18.562;2022-09-21T02:53:38;100883.74;;;9.15;100.00
57024;BME280;42916;54.346;18.562;2022-09-21T02:56:08;100880.43;;;9.14;100.00
57024;BME280;42916;54.346;18.562;2022-09-21T02:58:40;100883.63;;;9.14;100.00
57024;BME280;42916;54.346;18.562;2022-09-21T03:01:12;100884.60;;;9.14;100.00
57024;BME280;42916;54.346;18.562;2022-09-21T03:03:40;100887.39;;;9.12;100.00
57024;BME280;42916;54.346;18.562;2022-09-21T03:06:07;100892.27;;;9.10;100.00
57024;BME280;42916;54.346;18.562;2022-09-21T03:08:33;100887.61;;;9.09;100.00
57024;BME280;42916;54.346;18.562;2022-09-21T03:11:00;100888.59;;;9.06;100.00
57024;BME280;42916;54.346;18.562;2022-09-21T03:13:28;100888.84;;;9.04;100.00
57024;BME280;42916;54.346;18.562;2022-09-21T03:16:00;100888.23;;;9.04;100.00
57024;BME280;42916;54.346;18.562;2022-09-21T03:18:27;100887.19;;;9.04;100.00
57024;BME280;42916;54.346;18.562;2022-09-21T03:20:54;100888.73;;;9.03;100.00
57024;BME280;42916;54.346;18.562;2022-09-21T03:23:21;100889.39;;;9.03;100.00
57024;BME280;42916;54.346;18.562;2022-09-21T03:25:49;100889.11;;;9.05;100.00
57024;BME280;42916;54.346;18.562;2022-09-21T03:28:18;100886.88;;;9.07;100.00
57024;BME280;42916;54.346;18.562;2022-09-21T03:30:47;100890.40;;;9.09;100.00
57024;BME280;42916;54.346;18.562;2022-09-21T03:33:14;100894.63;;;9.11;100.00
57024;BME280;42916;54.346;18.562;2022-09-21T03:35:40;100900.42;;;9.11;100.00
57024;BME280;42916;54.346;18.562;2022-09-21T03:38:08;100900.52;;;9.13;100.00
57024;BME280;42916;54.346;18.562;2022-09-21T03:40:34;100899.25;;;9.16;100.00
57024;BME280;42916;54.346;18.562;2022-09-21T03:43:02;100907.79;;;9.21;100.00
57024;BME280;42916;54.346;18.562;2022-09-21T03:45:29;100912.09;;;9.26;100.00
57024;BME280;42916;54.346;18.562;2022-09-21T03:47:57;100914.98;;;9.31;100.00
57024;BME280;42916;54.346;18.562;2022-09-21T03:50:25;100916.42;;;9.34;100.00
57024;BME280;42916;54.346;18.562;2022-09-21T03:52:54;100919.89;;;9.36;100.00
57024;BME280;42916;54.346;18.562;2022-09-21T03:55:21;100920.27;;;9.38;100.00
57024;BME280;42916;54.346;18.562;2022-09-21T03:57:48;100923.52;;;9.40;100.00
57024;BME280;42916;54.346;18.562;2022-09-21T04:00:15;100926.80;;;9.41;100.00
57024;BME280;42916;54.346;18.562;2022-09-21T04:02:42;100931.15;;;9.43;100.00
57024;BME280;42916;54.346;18.562;2022-09-21T04:05:11;100932.18;;;9.44;100.00
57024;BME280;42916;54.346;18.562;2022-09-21T04:07:41;100933.48;;;9.43;100.00
57024;BME280;42916;54.346;18.562;2022-09-21T04:10:10;100932.55;;;9.45;100.00
57024;BME280;42916;54.346;18.562;2022-09-21T04:12:41;100938.14;;;9.45;100.00
57024;BME280;42916;54.346;18.562;2022-09-21T04:15:17;100936.80;;;9.46;100.00
57024;BME280;42916;54.346;18.562;2022-09-21T04:17:50;100937.30;;;9.42;100.00
57024;BME280;42916;54.346;18.562;2022-09-21T04:20:17;100939.40;;;9.39;100.00
57024;BME280;42916;54.346;18.562;2022-09-21T04:22:45;100936.98;;;9.37;100.00
57024;BME280;42916;54.346;18.562;2022-09-21T04:25:13;100938.76;;;9.35;100.00
57024;BME280;42916;54.346;18.562;2022-09-21T04:27:41;100936.20;;;9.33;100.00
57024;BME280;42916;54.346;18.562;2022-09-21T04:30:11;100933.52;;;9.29;100.00
57024;BME280;42916;54.346;18.562;2022-09-21T04:32:38;100933.33;;;9.24;100.00
57024;BME280;42916;54.346;18.562;2022-09-21T04:35:04;100932.77;;;9.18;100.00
57024;BME280;42916;54.346;18.562;2022-09-21T04:37:33;100936.88;;;9.16;100.00
57024;BME280;42916;54.346;18.562;2022-09-21T04:39:59;100939.36;;;9.15;100.00
57024;BME280;42916;54.346;18.562;2022-09-21T04:42:26;100944.08;;;9.15;100.00
57024;BME280;42916;54.346;18.562;2022-09-21T04:44:54;100951.36;;;9.16;100.00
57024;BME280;42916;54.346;18.562;2022-09-21T04:47:21;100947.48;;;9.19;100.00
57024;BME280;42916;54.346;18.562;2022-09-21T04:49:50;100950.05;;;9.24;100.00
57024;BME280;42916;54.346;18.562;2022-09-21T04:52:18;100951.15;;;9.28;100.00
57024;BME280;42916;54.346;18.562;2022-09-21T04:54:45;100946.36;;;9.32;100.00
57024;BME280;42916;54.346;18.562;2022-09-21T04:57:13;100949.67;;;9.37;100.00
57024;BME280;42916;54.346;18.562;2022-09-21T04:59:40;100948.88;;;9.40;100.00
57024;BME280;42916;54.346;18.562;2022-09-21T05:02:07;100951.55;;;9.42;100.00
57024;BME280;42916;54.346;18.562;2022-09-21T05:04:34;100950.98;;;9.44;100.00
57024;BME280;42916;54.346;18.562;2022-09-21T05:07:00;100951.42;;;9.44;100.00
57024;BME280;42916;54.346;18.562;2022-09-21T05:09:27;100955.38;;;9.46;100.00
57024;BME280;42916;54.346;18.562;2022-09-21T05:12:12;100955.98;;;9.51;100.00
57024;BME280;42916;54.346;18.562;2022-09-21T05:14:39;100956.37;;;9.53;100.00
57024;BME280;42916;54.346;18.562;2022-09-21T05:17:06;100957.96;;;9.56;100.00
57024;BME280;42916;54.346;18.562;2022-09-21T05:19:33;100962.41;;;9.58;100.00
57024;BME280;42916;54.346;18.562;2022-09-21T05:22:00;100961.30;;;9.64;100.00
57024;BME280;42916;54.346;18.562;2022-09-21T05:24:26;100967.28;;;9.71;100.00
57024;BME280;42916;54.346;18.562;2022-09-21T05:26:53;100967.11;;;9.76;100.00
57024;BME280;42916;54.346;18.562;2022-09-21T05:29:20;100973.45;;;9.79;100.00
57024;BME280;42916;54.346;18.562;2022-09-21T05:32:01;100975.51;;;9.81;100.00
57024;BME280;42916;54.346;18.562;2022-09-21T05:37:58;100975.45;;;9.91;100.00
57024;BME280;42916;54.346;18.562;2022-09-21T05:40:26;100976.06;;;9.96;100.00
57024;BME280;42916;54.346;18.562;2022-09-21T05:42:53;100974.79;;;10.03;100.00
57024;BME280;42916;54.346;18.562;2022-09-21T05:45:21;100976.00;;;10.06;100.00
57024;BME280;42916;54.346;18.562;2022-09-21T05:50:29;100983.35;;;10.11;100.00
57024;BME280;42916;54.346;18.562;2022-09-21T05:56:05;100991.42;;;10.17;100.00
57024;BME280;42916;54.346;18.562;2022-09-21T06:03:49;100989.22;;;10.23;100.00
57024;BME280;42916;54.346;18.562;2022-09-21T06:06:17;100995.86;;;10.24;100.00
57024;BME280;42916;54.346;18.562;2022-09-21T06:08:44;100997.11;;;10.24;100.00
57024;BME280;42916;54.346;18.562;2022-09-21T06:11:12;100998.74;;;10.23;100.00
57024;BME280;42916;54.346;18.562;2022-09-21T06:13:39;101001.02;;;10.25;100.00
57024;BME280;42916;54.346;18.562;2022-09-21T06:16:07;100998.58;;;10.24;100.00
57024;BME280;42916;54.346;18.562;2022-09-21T06:18:37;100999.78;;;10.22;100.00
57024;BME280;42916;54.346;18.562;2022-09-21T06:21:06;101004.71;;;10.23;100.00
57024;BME280;42916;54.346;18.562;2022-09-21T06:23:33;101006.14;;;10.26;100.00
57024;BME280;42916;54.346;18.562;2022-09-21T06:26:00;101002.39;;;10.30;100.00
57024;BME280;42916;54.346;18.562;2022-09-21T06:28:27;101001.45;;;10.36;100.00
57024;BME280;42916;54.346;18.562;2022-09-21T06:30:55;101001.45;;;10.42;100.00
57024;BME280;42916;54.346;18.562;2022-09-21T06:33:23;100998.54;;;10.48;100.00
57024;BME280;42916;54.346;18.562;2022-09-21T06:35:52;101002.70;;;10.54;100.00
57024;BME280;42916;54.346;18.562;2022-09-21T06:38:19;101002.57;;;10.61;100.00
57024;BME280;42916;54.346;18.562;2022-09-21T06:40:46;101005.89;;;10.64;100.00
57024;BME280;42916;54.346;18.562;2022-09-21T06:43:13;101011.33;;;10.66;100.00
57024;BME280;42916;54.346;18.562;2022-09-21T06:45:40;101006.06;;;10.68;100.00
57024;BME280;42916;54.346;18.562;2022-09-21T06:48:07;101005.58;;;10.70;100.00
57024;BME280;42916;54.346;18.562;2022-09-21T06:50:33;101000.17;;;10.77;100.00
57024;BME280;42916;54.346;18.562;2022-09-21T06:53:02;101004.44;;;10.81;100.00
57024;BME280;42916;54.346;18.562;2022-09-21T06:55:30;101008.94;;;10.86;100.00
57024;BME280;42916;54.346;18.562;2022-09-21T06:58:03;101012.02;;;10.91;100.00
57024;BME280;42916;54.346;18.562;2022-09-21T07:00:31;101011.33;;;10.97;100.00
57024;BME280;42916;54.346;18.562;2022-09-21T07:02:58;101015.15;;;11.01;100.00
57024;BME280;42916;54.346;18.562;2022-09-21T07:05:25;101014.55;;;11.09;100.00
57024;BME280;42916;54.346;18.562;2022-09-21T07:07:58;101019.46;;;11.19;100.00
57024;BME280;42916;54.346;18.562;2022-09-21T07:10:25;101025.66;;;11.30;100.00
57024;BME280;42916;54.346;18.562;2022-09-21T07:12:52;101027.73;;;11.40;100.00
57024;BME280;42916;54.346;18.562;2022-09-21T07:15:18;101025.66;;;11.46;100.00
57024;BME280;42916;54.346;18.562;2022-09-21T07:17:46;101030.94;;;11.51;100.00
57024;BME280;42916;54.346;18.562;2022-09-21T07:20:13;101028.70;;;11.57;100.00
57024;BME280;42916;54.346;18.562;2022-09-21T07:22:40;101035.16;;;11.61;100.00
57024;BME280;42916;54.346;18.562;2022-09-21T07:25:07;101037.85;;;11.57;100.00
57024;BME280;42916;54.346;18.562;2022-09-21T07:27:34;101039.73;;;11.53;100.00
57024;BME280;42916;54.346;18.562;2022-09-21T07:30:02;101038.84;;;11.45;100.00
57024;BME280;42916;54.346;18.562;2022-09-21T07:32:29;101036.02;;;11.40;100.00
57024;BME280;42916;54.346;18.562;2022-09-21T07:34:57;101040.27;;;11.34;100.00
57024;BME280;42916;54.346;18.562;2022-09-21T07:37:24;101039.25;;;11.31;100.00
57024;BME280;42916;54.346;18.562;2022-09-21T07:39:51;101038.61;;;11.29;100.00
57024;BME280;42916;54.346;18.562;2022-09-21T07:42:19;101037.41;;;11.29;100.00
57024;BME280;42916;54.346;18.562;2022-09-21T07:44:48;101037.61;;;11.35;100.00
57024;BME280;42916;54.346;18.562;2022-09-21T07:47:15;101040.64;;;11.42;100.00
57024;BME280;42916;54.346;18.562;2022-09-21T07:49:41;101043.38;;;11.49;100.00
57024;BME280;42916;54.346;18.562;2022-09-21T07:52:08;101040.79;;;11.57;100.00
57024;BME280;42916;54.346;18.562;2022-09-21T07:54:35;101042.41;;;11.62;100.00
57024;BME280;42916;54.346;18.562;2022-09-21T07:57:02;101044.33;;;11.72;100.00
57024;BME280;42916;54.346;18.562;2022-09-21T07:59:48;101040.89;;;11.79;100.00
57024;BME280;42916;54.346;18.562;2022-09-21T08:02:14;101042.55;;;11.84;100.00
57024;BME280;42916;54.346;18.562;2022-09-21T08:04:41;101041.05;;;11.91;100.00
57024;BME280;42916;54.346;18.562;2022-09-21T08:07:08;101046.92;;;11.97;100.00
57024;BME280;42916;54.346;18.562;2022-09-21T08:09:35;101045.43;;;12.02;100.00
57024;BME280;42916;54.346;18.562;2022-09-21T08:12:01;101047.98;;;12.10;100.00
57024;BME280;42916;54.346;18.562;2022-09-21T08:14:28;101045.20;;;12.16;100.00
57024;BME280;42916;54.346;18.562;2022-09-21T08:16:55;101048.91;;;12.19;100.00
57024;BME280;42916;54.346;18.562;2022-09-21T08:19:21;101043.08;;;12.23;100.00
57024;BME280;42916;54.346;18.562;2022-09-21T08:21:51;101048.42;;;12.23;100.00
57024;BME280;42916;54.346;18.562;2022-09-21T08:24:19;101046.58;;;12.24;100.00
57024;BME280;42916;54.346;18.562;2022-09-21T08:26:45;101049.71;;;12.29;100.00
57024;BME280;42916;54.346;18.562;2022-09-21T08:29:12;101049.95;;;12.34;100.00
57024;BME280;42916;54.346;18.562;2022-09-21T08:31:39;101051.85;;;12.41;100.00
57024;BME280;42916;54.346;18.562;2022-09-21T08:34:06;101053.27;;;12.46;100.00
57024;BME280;42916;54.346;18.562;2022-09-21T08:36:32;101052.79;;;12.47;100.00
57024;BME280;42916;54.346;18.562;2022-09-21T08:38:59;101051.66;;;12.48;99.75
57024;BME280;42916;54.346;18.562;2022-09-21T08:44:19;101052.86;;;12.55;99.25
57024;BME280;42916;54.346;18.562;2022-09-21T08:46:57;101047.17;;;12.68;99.70
57024;BME280;42916;54.346;18.562;2022-09-21T08:49:27;101051.98;;;12.85;99.17
57024;BME280;42916;54.346;18.562;2022-09-21T08:51:58;101050.46;;;13.01;99.23
57024;BME280;42916;54.346;18.562;2022-09-21T08:54:48;101051.16;;;13.09;96.95
57024;BME280;42916;54.346;18.562;2022-09-21T08:57:19;101055.95;;;13.13;93.27
57024;BME280;42916;54.346;18.562;2022-09-21T08:59:48;101058.23;;;13.17;93.21
57024;BME280;42916;54.346;18.562;2022-09-21T09:05:54;101051.23;;;13.45;92.49
57024;BME280;42916;54.346;18.562;2022-09-21T09:08:50;101051.27;;;13.61;88.61
57024;BME280;42916;54.346;18.562;2022-09-21T09:11:48;101055.42;;;13.73;87.69
57024;BME280;42916;54.346;18.562;2022-09-21T09:20:04;101043.48;;;13.78;87.36
57024;BME280;42916;54.346;18.562;2022-09-21T09:22:39;101042.23;;;13.78;87.97
57024;BME280;42916;54.346;18.562;2022-09-21T09:25:26;101046.71;;;13.76;88.21
57024;BME280;42916;54.346;18.562;2022-09-21T09:55:57;101047.44;;;14.34;80.93
57024;BME280;42916;54.346;18.562;2022-09-21T10:01:04;101046.46;;;14.46;79.95
57024;BME280;42916;54.346;18.562;2022-09-21T10:03:31;101056.83;;;14.37;77.06
57024;BME280;42916;54.346;18.562;2022-09-21T10:05:57;101053.26;;;14.19;77.06
57024;BME280;42916;54.346;18.562;2022-09-21T10:10:56;101058.58;;;13.99;78.46
57024;BME280;42916;54.346;18.562;2022-09-21T10:13:32;101067.73;;;13.92;78.85
57024;BME280;42916;54.346;18.562;2022-09-21T10:16:05;101068.55;;;13.85;77.51
57024;BME280;42916;54.346;18.562;2022-09-21T10:18:57;101072.97;;;13.78;78.39
57024;BME280;42916;54.346;18.562;2022-09-21T10:21:34;101076.71;;;13.75;78.72
57024;BME280;42916;54.346;18.562;2022-09-21T10:24:28;101078.79;;;13.74;79.02
57024;BME280;42916;54.346;18.562;2022-09-21T10:27:03;101073.64;;;13.79;80.09
57024;BME280;42916;54.346;18.562;2022-09-21T10:29:38;101077.30;;;13.84;79.82
57024;BME280;42916;54.346;18.562;2022-09-21T10:37:41;101077.27;;;13.75;79.74
57024;BME280;42916;54.346;18.562;2022-09-21T10:42:51;101076.94;;;13.57;80.14
57024;BME280;42916;54.346;18.562;2022-09-21T10:45:22;101077.77;;;13.52;80.30
57024;BME280;42916;54.346;18.562;2022-09-21T10:50:42;101076.77;;;13.47;79.44
57024;BME280;42916;54.346;18.562;2022-09-21T10:55:42;101072.30;;;13.42;79.60
57024;BME280;42916;54.346;18.562;2022-09-21T10:58:10;101065.14;;;13.58;79.77
57024;BME280;42916;54.346;18.562;2022-09-21T11:00:48;101060.40;;;13.87;80.70
57024;BME280;42916;54.346;18.562;2022-09-21T11:06:05;101059.82;;;14.09;77.45
57024;BME280;42916;54.346;18.562;2022-09-21T11:08:54;101064.88;;;14.00;75.79
57024;BME280;42916;54.346;18.562;2022-09-21T11:16:55;101071.91;;;13.89;75.24
57024;BME280;42916;54.346;18.562;2022-09-21T11:19:50;101071.41;;;13.95;75.05
57024;BME280;42916;54.346;18.562;2022-09-21T11:27:55;101074.48;;;14.17;74.58
57024;BME280;42916;54.346;18.562;2022-09-21T11:30:23;101073.80;;;14.22;74.54
57024;BME280;42916;54.346;18.562;2022-09-21T11:36:19;101081.14;;;14.24;76.79
57024;BME280;42916;54.346;18.562;2022-09-21T11:38:57;101077.79;;;14.28;77.67
57024;BME280;42916;54.346;18.562;2022-09-21T11:41:39;101079.60;;;14.30;78.63
57024;BME280;42916;54.346;18.562;2022-09-21T11:54:59;101084.48;;;14.23;80.47
57024;BME280;42916;54.346;18.562;2022-09-21T12:03:28;101073.25;;;14.38;79.77
57024;BME280;42916;54.346;18.562;2022-09-21T12:06:20;101076.95;;;14.43;78.50
57024;BME280;42916;54.346;18.562;2022-09-21T12:11:42;101069.34;;;14.95;75.81
57024;BME280;42916;54.346;18.562;2022-09-21T12:20:13;101068.88;;;14.63;74.58
57024;BME280;42916;54.346;18.562;2022-09-21T12:22:44;101070.59;;;14.90;74.51
57024;BME280;42916;54.346;18.562;2022-09-21T12:27:45;101073.34;;;15.32;73.63
57024;BME280;42916;54.346;18.562;2022-09-21T12:30:18;101076.48;;;15.38;72.83
57024;BME280;42916;54.346;18.562;2022-09-21T12:43:39;101067.47;;;16.41;67.88
57024;BME280;42916;54.346;18.562;2022-09-21T12:46:13;101073.57;;;16.73;66.98
57024;BME280;42916;54.346;18.562;2022-09-21T12:48:42;101071.55;;;16.68;65.81
57024;BME280;42916;54.346;18.562;2022-09-21T12:53:54;101079.75;;;15.97;64.84
57024;BME280;42916;54.346;18.562;2022-09-21T12:56:36;101079.75;;;15.58;64.73
57024;BME280;42916;54.346;18.562;2022-09-21T13:02:04;101084.86;;;14.85;66.48
57024;BME280;42916;54.346;18.562;2022-09-21T13:04:49;101089.24;;;14.56;67.04
57024;BME280;42916;54.346;18.562;2022-09-21T13:07:27;101083.86;;;14.38;68.01
57024;BME280;42916;54.346;18.562;2022-09-21T13:10:06;101087.05;;;14.46;68.82
57024;BME280;42916;54.346;18.562;2022-09-21T13:12:39;101083.98;;;14.37;68.55
57024;BME280;42916;54.346;18.562;2022-09-21T13:17:56;101084.17;;;15.06;69.86
57024;BME280;42916;54.346;18.562;2022-09-21T13:20:25;101078.07;;;15.64;69.63
57024;BME280;42916;54.346;18.562;2022-09-21T13:23:00;101081.34;;;16.10;67.41
57024;BME280;42916;54.346;18.562;2022-09-21T13:25:29;101078.58;;;16.29;63.26
57024;BME280;42916;54.346;18.562;2022-09-21T13:34:21;101076.84;;;15.56;63.15
57024;BME280;42916;54.346;18.562;2022-09-21T13:44:56;101078.34;;;14.46;66.06
57024;BME280;42916;54.346;18.562;2022-09-21T13:47:28;101074.98;;;14.93;66.98
57024;BME280;42916;54.346;18.562;2022-09-21T13:49:56;101077.71;;;15.56;67.71
57024;BME280;42916;54.346;18.562;2022-09-21T13:52:31;101081.62;;;16.10;64.15
57024;BME280;42916;54.346;18.562;2022-09-21T13:55:02;101080.04;;;16.38;62.41
57024;BME280;42916;54.346;18.562;2022-09-21T13:57:45;101083.01;;;16.39;60.07
57024;BME280;42916;54.346;18.562;2022-09-21T14:02:55;101083.54;;;16.47;60.00
57024;BME280;42916;54.346;18.562;2022-09-21T14:13:32;101086.48;;;14.78;60.84
57024;BME280;42916;54.346;18.562;2022-09-21T14:18:53;101087.70;;;14.30;63.11
57024;BME280;42916;54.346;18.562;2022-09-21T14:21:20;101085.52;;;14.16;64.21
57024;BME280;42916;54.346;18.562;2022-09-21T14:29:26;101086.93;;;14.81;66.20
57024;BME280;42916;54.346;18.562;2022-09-21T14:31:58;101074.60;;;15.54;66.00
57024;BME280;42916;54.346;18.562;2022-09-21T14:34:31;101080.22;;;16.28;65.64
57024;BME280;42916;54.346;18.562;2022-09-21T14:37:03;101081.05;;;16.78;62.85
57024;BME280;42916;54.346;18.562;2022-09-21T14:39:39;101080.61;;;16.95;60.90
57024;BME280;42916;54.346;18.562;2022-09-21T14:42:17;101083.24;;;17.10;61.03
57024;BME280;42916;54.346;18.562;2022-09-21T14:44:47;101086.65;;;17.21;60.85
57024;BME280;42916;54.346;18.562;2022-09-21T14:53:12;101085.78;;;16.17;63.31
57024;BME280;42916;54.346;18.562;2022-09-21T15:06:43;101095.31;;;13.84;68.33
57024;BME280;42916;54.346;18.562;2022-09-21T15:10:21;101097.19;;;13.53;69.41
57024;BME280;42916;54.346;18.562;2022-09-21T15:18:25;101103.84;;;13.21;73.10
57024;BME280;42916;54.346;18.562;2022-09-21T15:23:32;101098.12;;;13.08;73.78
57024;BME280;42916;54.346;18.562;2022-09-21T15:26:02;101101.66;;;13.02;74.26
57024;BME280;42916;54.346;18.562;2022-09-21T15:28:42;101099.89;;;12.92;74.41
57024;BME280;42916;54.346;18.562;2022-09-21T15:31:14;101099.83;;;12.82;74.79
57024;BME280;42916;54.346;18.562;2022-09-21T15:33:42;101101.46;;;12.74;75.09
57024;BME280;42916;54.346;18.562;2022-09-21T15:36:18;101100.42;;;12.66;75.51
57024;BME280;42916;54.346;18.562;2022-09-21T15:38:49;101099.95;;;12.59;75.75
57024;BME280;42916;54.346;18.562;2022-09-21T15:44:11;101098.58;;;12.46;76.61
57024;BME280;42916;54.346;18.562;2022-09-21T15:46:40;101102.96;;;12.40;76.97
57024;BME280;42916;54.346;18.562;2022-09-21T15:49:11;101106.45;;;12.33;76.95
57024;BME280;42916;54.346;18.562;2022-09-21T15:51:42;101107.33;;;12.26;77.26
57024;BME280;42916;54.346;18.562;2022-09-21T15:57:35;101106.01;;;12.12;77.57
57024;BME280;42916;54.346;18.562;2022-09-21T16:00:16;101105.41;;;12.05;77.87
57024;BME280;42916;54.346;18.562;2022-09-21T16:03:00;101107.27;;;11.99;78.10
57024;BME280;42916;54.346;18.562;2022-09-21T16:05:48;101107.76;;;11.95;78.50
57024;BME280;42916;54.346;18.562;2022-09-21T16:08:31;101113.31;;;11.90;78.82
57024;BME280;42916;54.346;18.562;2022-09-21T16:13:46;101117.22;;;11.80;79.24
57024;BME280;42916;54.346;18.562;2022-09-21T16:16:31;101117.45;;;11.74;79.62
57024;BME280;42916;54.346;18.562;2022-09-21T16:18:58;101117.88;;;11.74;79.78
57024;BME280;42916;54.346;18.562;2022-09-21T16:21:27;101115.86;;;11.74;79.92
57024;BME280;42916;54.346;18.562;2022-09-21T16:24:18;101116.33;;;11.72;80.19
57024;BME280;42916;54.346;18.562;2022-09-21T16:27:14;101119.31;;;11.71;80.66
57024;BME280;42916;54.346;18.562;2022-09-21T16:29:43;101116.13;;;11.67;80.76
57024;BME280;42916;54.346;18.562;2022-09-21T16:34:50;101120.17;;;11.56;81.31
57024;BME280;42916;54.346;18.562;2022-09-21T16:42:16;101129.58;;;11.46;81.58
57024;BME280;42916;54.346;18.562;2022-09-21T16:44:42;101130.13;;;11.43;81.74
57024;BME280;42916;54.346;18.562;2022-09-21T16:47:19;101133.50;;;11.40;81.96
57024;BME280;42916;54.346;18.562;2022-09-21T16:49:51;101134.94;;;11.38;82.28
57024;BME280;42916;54.346;18.562;2022-09-21T16:52:24;101140.27;;;11.36;82.48
57024;BME280;42916;54.346;18.562;2022-09-21T16:54:50;101141.72;;;11.31;82.89
57024;BME280;42916;54.346;18.562;2022-09-21T16:57:17;101141.95;;;11.27;82.76
57024;BME280;42916;54.346;18.562;2022-09-21T16:59:44;101142.07;;;11.24;82.88
57024;BME280;42916;54.346;18.562;2022-09-21T17:02:10;101139.73;;;11.22;82.85
57024;BME280;42916;54.346;18.562;2022-09-21T17:04:39;101140.56;;;11.19;83.22